sensor_id;sensor_type;location;lat;lon;timestamp;pressure;altitude;pressure_sealevel;temperature;humidity
45888;BME280;31595;51.418;7.572;2023-04-28T00:02:13;100065.41;;;11.93;46.80
45888;BME280;31595;51.418;7.572;2023-04-28T00:04:40;100064.44;;;11.80;47.69
45888;BME280;31595;51.418;7.572;2023-04-28T00:07:07;100053.75;;;11.73;47.83
45888;BME280;31595;51.418;7.572;2023-04-28T00:09:35;100049.84;;;11.74;47.93
45888;BME280;31595;51.418;7.572;2023-04-28T00:12:02;100042.47;;;11.70;48.05
45888;BME280;31595;51.418;7.572;2023-04-28T00:14:29;100038.34;;;11.67;48.68
45888;BME280;31595;51.418;7.572;2023-04-28T00:16:57;100030.94;;;11.71;48.76
45888;BME280;31595;51.418;7.572;2023-04-28T00:19:25;100038.00;;;11.77;47.95
45888;BME280;31595;51.418;7.572;2023-04-28T00:21:53;100032.25;;;11.83;48.34
45888;BME280;31595;51.418;7.572;2023-04-28T00:24:20;100043.22;;;11.88;49.08
45888;BME280;31595;51.418;7.572;2023-04-28T00:26:47;100040.44;;;11.88;49.63
45888;BME280;31595;51.418;7.572;2023-04-28T00:29:14;100039.31;;;11.89;49.87
45888;BME280;31595;51.418;7.572;2023-04-28T00:31:41;100036.16;;;11.90;50.71
45888;BME280;31595;51.418;7.572;2023-04-28T00:34:11;100027.00;;;11.90;51.60
45888;BME280;31595;51.418;7.572;2023-04-28T00:36:41;100019.59;;;11.94;51.65
45888;BME280;31595;51.418;7.572;2023-04-28T00:39:11;100013.34;;;11.97;52.10
45888;BME280;31595;51.418;7.572;2023-04-28T00:41:39;100008.72;;;12.01;52.53
45888;BME280;31595;51.418;7.572;2023-04-28T00:44:08;100001.34;;;11.96;52.39
45888;BME280;31595;51.418;7.572;2023-04-28T00:46:36;100001.69;;;11.86;52.77
45888;BME280;31595;51.418;7.572;2023-04-28T00:49:03;100007.44;;;11.90;53.10
45888;BME280;31595;51.418;7.572;2023-04-28T00:51:31;100010.56;;;11.97;53.18
45888;BME280;31595;51.418;7.572;2023-04-28T00:54:03;100012.50;;;11.96;54.13
45888;BME280;31595;51.418;7.572;2023-04-28T00:56:32;100012.66;;;12.00;52.61
45888;BME280;31595;51.418;7.572;2023-04-28T00:59:00;100003.31;;;11.96;52.95
45888;BME280;31595;51.418;7.572;2023-04-28T01:01:27;100002.19;;;11.88;53.17
45888;BME280;31595;51.418;7.572;2023-04-28T01:03:55;99993.16;;;11.91;52.79
45888;BME280;31595;51.418;7.572;2023-04-28T01:06:22;99987.75;;;11.95;53.69
45888;BME280;31595;51.418;7.572;2023-04-28T01:08:50;99984.47;;;11.93;54.24
45888;BME280;31595;51.418;7.572;2023-04-28T01:11:19;99990.19;;;11.96;54.89
45888;BME280;31595;51.418;7.572;2023-04-28T01:13:46;99987.06;;;11.98;55.39
45888;BME280;31595;51.418;7.572;2023-04-28T01:16:14;99984.75;;;12.00;56.78
45888;BME280;31595;51.418;7.572;2023-04-28T01:18:46;99986.00;;;12.11;57.37
45888;BME280;31595;51.418;7.572;2023-04-28T01:21:13;99983.09;;;12.08;57.76
45888;BME280;31595;51.418;7.572;2023-04-28T01:23:45;99980.91;;;12.13;56.54
45888;BME280;31595;51.418;7.572;2023-04-28T01:26:13;99976.31;;;12.09;56.16
45888;BME280;31595;51.418;7.572;2023-04-28T01:28:41;99976.66;;;12.07;56.25
45888;BME280;31595;51.418;7.572;2023-04-28T01:31:08;99980.41;;;12.11;55.87
45888;BME280;31595;51.418;7.572;2023-04-28T01:33:37;99981.38;;;12.15;56.12
45888;BME280;31595;51.418;7.572;2023-04-28T01:36:05;99975.78;;;12.15;55.64
45888;BME280;31595;51.418;7.572;2023-04-28T01:38:32;99968.06;;;12.21;55.15
45888;BME280;31595;51.418;7.572;2023-04-28T01:41:02;99969.50;;;12.27;54.85
45888;BME280;31595;51.418;7.572;2023-04-28T01:43:29;99965.34;;;12.33;55.56
45888;BME280;31595;51.418;7.572;2023-04-28T01:45:57;99967.13;;;12.38;55.35
45888;BME280;31595;51.418;7.572;2023-04-28T01:48:27;99970.53;;;12.44;56.49
45888;BME280;31595;51.418;7.572;2023-04-28T01:50:54;99968.69;;;12.48;56.41
45888;BME280;31595;51.418;7.572;2023-04-28T01:53:22;99965.06;;;12.47;57.89
45888;BME280;31595;51.418;7.572;2023-04-28T01:55:52;99970.31;;;12.49;58.63
45888;BME280;31595;51.418;7.572;2023-04-28T01:58:21;99958.56;;;12.43;59.33
45888;BME280;31595;51.418;7.572;2023-04-28T02:00:48;99965.06;;;12.47;60.09
45888;BME280;31595;51.418;7.572;2023-04-28T02:03:18;99962.75;;;12.49;59.85
45888;BME280;31595;51.418;7.572;2023-04-28T02:05:45;99964.25;;;12.47;59.72
45888;BME280;31595;51.418;7.572;2023-04-28T02:08:15;99965.63;;;12.41;59.30
45888;BME280;31595;51.418;7.572;2023-04-28T02:10:42;99963.44;;;12.46;59.20
45888;BME280;31595;51.418;7.572;2023-04-28T02:13:12;99977.47;;;12.37;58.99
45888;BME280;31595;51.418;7.572;2023-04-28T02:15:43;99960.38;;;12.39;58.79
45888;BME280;31595;51.418;7.572;2023-04-28T02:18:10;99959.47;;;12.26;58.61
45888;BME280;31595;51.418;7.572;2023-04-28T02:20:37;99961.19;;;12.18;59.23
45888;BME280;31595;51.418;7.572;2023-04-28T02:23:04;99960.25;;;12.06;59.71
45888;BME280;31595;51.418;7.572;2023-04-28T02:25:32;99959.88;;;12.16;59.42
45888;BME280;31595;51.418;7.572;2023-04-28T02:27:59;99955.78;;;12.13;59.70
45888;BME280;31595;51.418;7.572;2023-04-28T02:30:26;99955.78;;;12.13;59.85
45888;BME280;31595;51.418;7.572;2023-04-28T02:32:55;99964.78;;;12.19;59.55
45888;BME280;31595;51.418;7.572;2023-04-28T02:35:22;99967.41;;;12.15;60.12
45888;BME280;31595;51.418;7.572;2023-04-28T02:37:52;99972.53;;;12.13;61.55
45888;BME280;31595;51.418;7.572;2023-04-28T02:40:20;99972.81;;;12.21;62.51
45888;BME280;31595;51.418;7.572;2023-04-28T02:42:47;99970.22;;;12.15;63.50
45888;BME280;31595;51.418;7.572;2023-04-28T02:45:18;99950.81;;;12.19;63.64
45888;BME280;31595;51.418;7.572;2023-04-28T02:47:45;99953.03;;;12.05;63.14
45888;BME280;31595;51.418;7.572;2023-04-28T02:50:13;99949.91;;;12.06;62.72
45888;BME280;31595;51.418;7.572;2023-04-28T02:52:41;99952.91;;;12.01;63.07
45888;BME280;31595;51.418;7.572;2023-04-28T02:55:08;99946.63;;;12.04;62.79
45888;BME280;31595;51.418;7.572;2023-04-28T02:57:36;99944.06;;;11.99;63.97
45888;BME280;31595;51.418;7.572;2023-04-28T03:00:04;99944.56;;;11.84;63.60
45888;BME280;31595;51.418;7.572;2023-04-28T03:02:31;99947.44;;;11.66;64.01
45888;BME280;31595;51.418;7.572;2023-04-28T03:04:58;99949.47;;;11.57;64.50
45888;BME280;31595;51.418;7.572;2023-04-28T03:07:27;99936.28;;;11.19;66.82
45888;BME280;31595;51.418;7.572;2023-04-28T03:09:54;99931.06;;;11.09;67.70
45888;BME280;31595;51.418;7.572;2023-04-28T03:12:23;99932.22;;;10.99;68.53
45888;BME280;31595;51.418;7.572;2023-04-28T03:14:53;99938.16;;;10.89;68.49
45888;BME280;31595;51.418;7.572;2023-04-28T03:17:21;99932.41;;;10.76;69.60
45888;BME280;31595;51.418;7.572;2023-04-28T03:19:48;99933.91;;;10.56;71.38
45888;BME280;31595;51.418;7.572;2023-04-28T03:22:15;99930.78;;;10.58;71.06
45888;BME280;31595;51.418;7.572;2023-04-28T03:24:44;99928.19;;;10.53;71.44
45888;BME280;31595;51.418;7.572;2023-04-28T03:27:11;99927.00;;;10.36;71.07
45888;BME280;31595;51.418;7.572;2023-04-28T03:29:39;99932.59;;;10.45;71.81
45888;BME280;31595;51.418;7.572;2023-04-28T03:32:06;99924.72;;;10.47;73.15
45888;BME280;31595;51.418;7.572;2023-04-28T03:34:36;99927.50;;;10.47;73.01
45888;BME280;31595;51.418;7.572;2023-04-28T03:37:04;99933.56;;;10.49;73.75
45888;BME280;31595;51.418;7.572;2023-04-28T03:39:31;99922.13;;;10.42;73.99
45888;BME280;31595;51.418;7.572;2023-04-28T03:42:00;99923.59;;;10.57;73.76
45888;BME280;31595;51.418;7.572;2023-04-28T03:44:27;99916.22;;;10.61;74.06
45888;BME280;31595;51.418;7.572;2023-04-28T03:46:54;99919.97;;;10.65;74.37
45888;BME280;31595;51.418;7.572;2023-04-28T03:49:22;99919.47;;;10.72;73.32
45888;BME280;31595;51.418;7.572;2023-04-28T03:51:49;99915.88;;;10.80;73.98
45888;BME280;31595;51.418;7.572;2023-04-28T03:54:17;99911.28;;;10.84;73.94
45888;BME280;31595;51.418;7.572;2023-04-28T03:56:44;99898.94;;;10.94;73.19
45888;BME280;31595;51.418;7.572;2023-04-28T03:59:13;99896.00;;;10.99;73.69
45888;BME280;31595;51.418;7.572;2023-04-28T04:01:43;99893.88;;;10.96;73.17
45888;BME280;31595;51.418;7.572;2023-04-28T04:04:11;99886.66;;;11.04;73.41
45888;BME280;31595;51.418;7.572;2023-04-28T04:06:38;99889.56;;;11.16;73.29
45888;BME280;31595;51.418;7.572;2023-04-28T04:09:08;99880.41;;;11.07;73.10
45888;BME280;31595;51.418;7.572;2023-04-28T04:11:35;99883.47;;;11.23;73.67
45888;BME280;31595;51.418;7.572;2023-04-28T04:14:03;99881.34;;;11.28;73.41
45888;BME280;31595;51.418;7.572;2023-04-28T04:16:34;99882.78;;;11.34;73.00
45888;BME280;31595;51.418;7.572;2023-04-28T04:19:01;99882.41;;;11.45;73.10
45888;BME280;31595;51.418;7.572;2023-04-28T04:21:29;99882.22;;;11.50;73.22
45888;BME280;31595;51.418;7.572;2023-04-28T04:23:57;99876.25;;;11.60;72.90
45888;BME280;31595;51.418;7.572;2023-04-28T04:26:24;99866.16;;;11.47;72.82
45888;BME280;31595;51.418;7.572;2023-04-28T04:28:51;99864.63;;;11.58;72.12
45888;BME280;31595;51.418;7.572;2023-04-28T04:31:19;99857.69;;;11.64;72.01
45888;BME280;31595;51.418;7.572;2023-04-28T04:33:48;99854.97;;;11.55;71.11
45888;BME280;31595;51.418;7.572;2023-04-28T04:36:16;99847.78;;;11.46;71.09
45888;BME280;31595;51.418;7.572;2023-04-28T04:38:43;99857.97;;;11.42;70.79
45888;BME280;31595;51.418;7.572;2023-04-28T04:41:11;99852.94;;;11.35;70.87
45888;BME280;31595;51.418;7.572;2023-04-28T04:43:38;99843.41;;;11.36;70.90
45888;BME280;31595;51.418;7.572;2023-04-28T04:46:06;99827.88;;;11.26;70.75
45888;BME280;31595;51.418;7.572;2023-04-28T04:48:33;99824.28;;;11.17;71.01
45888;BME280;31595;51.418;7.572;2023-04-28T04:51:02;99829.06;;;11.16;71.33
45888;BME280;31595;51.418;7.572;2023-04-28T04:53:29;99830.50;;;11.23;71.50
45888;BME280;31595;51.418;7.572;2023-04-28T04:55:56;99826.91;;;11.22;71.93
45888;BME280;31595;51.418;7.572;2023-04-28T04:58:26;99819.69;;;11.21;71.41
45888;BME280;31595;51.418;7.572;2023-04-28T05:00:53;99823.91;;;11.27;71.36
45888;BME280;31595;51.418;7.572;2023-04-28T05:03:20;99823.91;;;11.27;71.60
45888;BME280;31595;51.418;7.572;2023-04-28T05:05:48;99831.59;;;11.39;71.40
45888;BME280;31595;51.418;7.572;2023-04-28T05:08:16;99824.66;;;11.45;71.36
45888;BME280;31595;51.418;7.572;2023-04-28T05:10:44;99841.06;;;11.47;71.46
45888;BME280;31595;51.418;7.572;2023-04-28T05:13:11;99835.22;;;11.61;72.06
45888;BME280;31595;51.418;7.572;2023-04-28T05:15:38;99843.69;;;11.73;72.06
45888;BME280;31595;51.418;7.572;2023-04-28T05:18:06;99841.31;;;11.84;71.74
45888;BME280;31595;51.418;7.572;2023-04-28T05:20:35;99835.63;;;11.80;70.96
45888;BME280;31595;51.418;7.572;2023-04-28T05:23:03;99831.47;;;11.86;71.13
45888;BME280;31595;51.418;7.572;2023-04-28T05:25:32;99827.59;;;11.78;70.70
45888;BME280;31595;51.418;7.572;2023-04-28T05:27:59;99823.16;;;11.77;70.43
45888;BME280;31595;51.418;7.572;2023-04-28T05:30:29;99827.28;;;11.71;70.26
45888;BME280;31595;51.418;7.572;2023-04-28T05:32:56;99837.16;;;11.69;70.46
45888;BME280;31595;51.418;7.572;2023-04-28T05:35:24;99840.56;;;11.74;71.24
45888;BME280;31595;51.418;7.572;2023-04-28T05:37:52;99845.72;;;11.93;71.47
45888;BME280;31595;51.418;7.572;2023-04-28T05:40:19;99847.97;;;12.00;71.21
45888;BME280;31595;51.418;7.572;2023-04-28T05:42:48;99836.03;;;11.70;75.69
45888;BME280;31595;51.418;7.572;2023-04-28T05:45:15;99852.19;;;11.55;77.16
45888;BME280;31595;51.418;7.572;2023-04-28T05:47:43;99842.09;;;11.63;76.45
45888;BME280;31595;51.418;7.572;2023-04-28T05:50:10;99846.34;;;11.69;76.79
45888;BME280;31595;51.418;7.572;2023-04-28T05:52:37;99845.00;;;11.75;76.52
45888;BME280;31595;51.418;7.572;2023-04-28T05:55:05;99840.84;;;11.82;76.25
45888;BME280;31595;51.418;7.572;2023-04-28T05:57:33;99833.44;;;11.86;75.65
45888;BME280;31595;51.418;7.572;2023-04-28T06:00:02;99827.22;;;11.89;74.42
45888;BME280;31595;51.418;7.572;2023-04-28T06:02:30;99811.91;;;11.86;73.83
45888;BME280;31595;51.418;7.572;2023-04-28T06:04:57;99805.53;;;11.86;73.75
45888;BME280;31595;51.418;7.572;2023-04-28T06:07:24;99806.69;;;11.85;74.76
45888;BME280;31595;51.418;7.572;2023-04-28T06:09:51;99799.78;;;11.91;74.53
45888;BME280;31595;51.418;7.572;2023-04-28T06:12:18;99795.50;;;11.93;73.72
45888;BME280;31595;51.418;7.572;2023-04-28T06:14:46;99788.41;;;11.96;73.43
45888;BME280;31595;51.418;7.572;2023-04-28T06:17:14;99789.03;;;12.02;72.52
45888;BME280;31595;51.418;7.572;2023-04-28T06:19:41;99783.09;;;12.03;72.15
45888;BME280;31595;51.418;7.572;2023-04-28T06:22:09;99784.47;;;11.97;71.98
45888;BME280;31595;51.418;7.572;2023-04-28T06:24:36;99790.38;;;12.16;71.25
45888;BME280;31595;51.418;7.572;2023-04-28T06:27:04;99789.75;;;12.32;71.46
45888;BME280;31595;51.418;7.572;2023-04-28T06:29:31;99791.47;;;12.57;72.00
45888;BME280;31595;51.418;7.572;2023-04-28T06:31:59;99781.25;;;12.74;72.20
45888;BME280;31595;51.418;7.572;2023-04-28T06:34:27;99774.78;;;13.07;72.43
45888;BME280;31595;51.418;7.572;2023-04-28T06:36:57;99774.25;;;13.38;72.04
45888;BME280;31595;51.418;7.572;2023-04-28T06:39:24;99770.84;;;13.69;71.85
45888;BME280;31595;51.418;7.572;2023-04-28T06:41:51;99778.22;;;13.90;71.02
45888;BME280;31595;51.418;7.572;2023-04-28T06:44:19;99776.13;;;13.99;69.09
45888;BME280;31595;51.418;7.572;2023-04-28T06:46:46;99763.50;;;14.05;67.45
45888;BME280;31595;51.418;7.572;2023-04-28T06:49:13;99768.50;;;14.12;66.14
45888;BME280;31595;51.418;7.572;2023-04-28T06:51:42;99758.22;;;14.16;65.29
45888;BME280;31595;51.418;7.572;2023-04-28T06:54:09;99764.44;;;14.09;65.54
45888;BME280;31595;51.418;7.572;2023-04-28T06:56:36;99769.19;;;14.09;64.63
45888;BME280;31595;51.418;7.572;2023-04-28T06:59:04;99759.22;;;14.24;64.98
45888;BME280;31595;51.418;7.572;2023-04-28T07:01:31;99754.28;;;14.33;64.14
45888;BME280;31595;51.418;7.572;2023-04-28T07:03:58;99752.75;;;14.64;64.48
45888;BME280;31595;51.418;7.572;2023-04-28T07:06:25;99741.09;;;14.61;63.57
45888;BME280;31595;51.418;7.572;2023-04-28T07:08:56;99740.19;;;14.73;62.45
45888;BME280;31595;51.418;7.572;2023-04-28T07:11:23;99743.81;;;15.06;62.53
45888;BME280;31595;51.418;7.572;2023-04-28T07:13:50;99754.41;;;14.96;62.92
45888;BME280;31595;51.418;7.572;2023-04-28T07:16:17;99752.03;;;14.98;62.01
45888;BME280;31595;51.418;7.572;2023-04-28T07:18:46;99746.34;;;14.79;63.08
45888;BME280;31595;51.418;7.572;2023-04-28T07:21:13;99755.38;;;14.88;63.13
45888;BME280;31595;51.418;7.572;2023-04-28T07:23:40;99756.13;;;15.17;63.05
45888;BME280;31595;51.418;7.572;2023-04-28T07:26:09;99755.16;;;15.45;62.63
45888;BME280;31595;51.418;7.572;2023-04-28T07:28:36;99753.66;;;15.15;60.63
45888;BME280;31595;51.418;7.572;2023-04-28T07:31:04;99748.97;;;15.04;62.02
45888;BME280;31595;51.418;7.572;2023-04-28T07:33:31;99740.63;;;15.07;62.17
45888;BME280;31595;51.418;7.572;2023-04-28T07:35:58;99739.78;;;15.38;61.45
45888;BME280;31595;51.418;7.572;2023-04-28T07:38:26;99730.78;;;15.65;61.69
45888;BME280;31595;51.418;7.572;2023-04-28T07:40:53;99725.72;;;15.90;60.19
45888;BME280;31595;51.418;7.572;2023-04-28T07:43:21;99730.00;;;16.03;61.09
45888;BME280;31595;51.418;7.572;2023-04-28T07:45:54;99738.06;;;16.24;60.25
45888;BME280;31595;51.418;7.572;2023-04-28T07:48:22;99732.25;;;16.56;59.16
45888;BME280;31595;51.418;7.572;2023-04-28T07:50:49;99732.88;;;16.69;59.80
45888;BME280;31595;51.418;7.572;2023-04-28T07:53:16;99727.97;;;16.85;58.47
45888;BME280;31595;51.418;7.572;2023-04-28T07:55:43;99716.97;;;16.99;58.19
45888;BME280;31595;51.418;7.572;2023-04-28T07:58:11;99727.47;;;17.02;57.82
45888;BME280;31595;51.418;7.572;2023-04-28T08:00:40;99734.22;;;16.98;58.03
45888;BME280;31595;51.418;7.572;2023-04-28T08:03:07;99730.53;;;17.17;58.33
45888;BME280;31595;51.418;7.572;2023-04-28T08:05:34;99737.03;;;17.48;58.27
45888;BME280;31595;51.418;7.572;2023-04-28T08:08:01;99728.97;;;17.76;57.77
45888;BME280;31595;51.418;7.572;2023-04-28T08:10:29;99736.09;;;18.64;56.29
45888;BME280;31595;51.418;7.572;2023-04-28T08:12:56;99727.59;;;19.54;54.78
45888;BME280;31595;51.418;7.572;2023-04-28T08:15:24;99729.19;;;20.28;52.58
45888;BME280;31595;51.418;7.572;2023-04-28T08:17:54;99732.47;;;20.37;50.44
45888;BME280;31595;51.418;7.572;2023-04-28T08:20:21;99731.63;;;19.49;50.97
45888;BME280;31595;51.418;7.572;2023-04-28T08:22:49;99733.94;;;19.99;49.74
45888;BME280;31595;51.418;7.572;2023-04-28T08:25:16;99730.56;;;20.70;48.98
45888;BME280;31595;51.418;7.572;2023-04-28T08:27:44;99732.22;;;20.85;47.97
45888;BME280;31595;51.418;7.572;2023-04-28T08:30:11;99736.25;;;20.95;47.70
45888;BME280;31595;51.418;7.572;2023-04-28T08:32:38;99753.19;;;20.70;47.00
45888;BME280;31595;51.418;7.572;2023-04-28T08:35:08;99730.84;;;20.36;47.90
45888;BME280;31595;51.418;7.572;2023-04-28T08:37:35;99748.38;;;20.85;48.00
45888;BME280;31595;51.418;7.572;2023-04-28T08:40:03;99726.94;;;21.41;46.16
45888;BME280;31595;51.418;7.572;2023-04-28T08:42:34;99743.34;;;20.28;47.41
45888;BME280;31595;51.418;7.572;2023-04-28T08:45:03;99752.16;;;20.08;47.99
45888;BME280;31595;51.418;7.572;2023-04-28T08:47:33;99744.16;;;19.55;49.53
45888;BME280;31595;51.418;7.572;2023-04-28T08:50:05;99749.94;;;19.73;49.38
45888;BME280;31595;51.418;7.572;2023-04-28T08:52:35;99738.41;;;20.07;49.05
45888;BME280;31595;51.418;7.572;2023-04-28T08:55:05;99742.81;;;19.35;49.58
45888;BME280;31595;51.418;7.572;2023-04-28T08:57:35;99745.75;;;19.53;49.86
45888;BME280;31595;51.418;7.572;2023-04-28T09:00:04;99739.00;;;19.68;49.35
45888;BME280;31595;51.418;7.572;2023-04-28T09:02:32;99744.00;;;19.89;48.72
45888;BME280;31595;51.418;7.572;2023-04-28T09:04:59;99734.66;;;19.81;50.00
45888;BME280;31595;51.418;7.572;2023-04-28T09:07:26;99725.72;;;20.67;48.42
45888;BME280;31595;51.418;7.572;2023-04-28T09:10:16;99730.97;;;20.76;47.46
45888;BME280;31595;51.418;7.572;2023-04-28T09:12:44;99721.28;;;20.91;47.80
45888;BME280;31595;51.418;7.572;2023-04-28T09:15:24;99720.84;;;20.60;47.64
45888;BME280;31595;51.418;7.572;2023-04-28T09:17:52;99719.94;;;20.31;48.04
45888;BME280;31595;51.418;7.572;2023-04-28T09:20:19;99730.22;;;19.84;49.50
45888;BME280;31595;51.418;7.572;2023-04-28T09:22:47;99727.50;;;19.39;50.97
45888;BME280;31595;51.418;7.572;2023-04-28T09:25:17;99725.13;;;19.48;50.86
45888;BME280;31595;51.418;7.572;2023-04-28T09:27:46;99729.16;;;19.40;50.98
45888;BME280;31595;51.418;7.572;2023-04-28T09:30:13;99728.47;;;18.69;52.63
45888;BME280;31595;51.418;7.572;2023-04-28T09:32:41;99725.19;;;19.00;51.69
45888;BME280;31595;51.418;7.572;2023-04-28T09:35:08;99727.34;;;18.77;52.75
45888;BME280;31595;51.418;7.572;2023-04-28T09:37:36;99716.81;;;18.70;52.83
45888;BME280;31595;51.418;7.572;2023-04-28T09:40:05;99723.16;;;18.97;52.88
45888;BME280;31595;51.418;7.572;2023-04-28T09:42:36;99721.78;;;18.43;53.40
45888;BME280;31595;51.418;7.572;2023-04-28T09:45:05;99715.78;;;18.85;53.75
45888;BME280;31595;51.418;7.572;2023-04-28T09:47:34;99712.25;;;19.55;51.36
45888;BME280;31595;51.418;7.572;2023-04-28T09:50:03;99718.94;;;19.25;52.03
45888;BME280;31595;51.418;7.572;2023-04-28T09:52:32;99727.00;;;19.26;51.73
45888;BME280;31595;51.418;7.572;2023-04-28T09:55:01;99723.16;;;19.49;51.65
45888;BME280;31595;51.418;7.572;2023-04-28T09:57:29;99713.41;;;20.13;50.46
45888;BME280;31595;51.418;7.572;2023-04-28T09:59:59;99713.19;;;20.64;49.48
45888;BME280;31595;51.418;7.572;2023-04-28T10:02:27;99701.47;;;20.84;48.84
45888;BME280;31595;51.418;7.572;2023-04-28T10:04:55;99705.09;;;21.45;47.29
45888;BME280;31595;51.418;7.572;2023-04-28T10:07:23;99705.75;;;22.07;46.02
45888;BME280;31595;51.418;7.572;2023-04-28T10:09:50;99709.94;;;21.63;45.83
45888;BME280;31595;51.418;7.572;2023-04-28T10:12:19;99716.44;;;21.20;46.92
45888;BME280;31595;51.418;7.572;2023-04-28T10:14:47;99708.75;;;21.28;46.90
45888;BME280;31595;51.418;7.572;2023-04-28T10:17:17;99707.94;;;20.99;47.66
45888;BME280;31595;51.418;7.572;2023-04-28T10:19:46;99707.94;;;20.77;48.19
45888;BME280;31595;51.418;7.572;2023-04-28T10:22:27;99707.41;;;20.43;48.86
45888;BME280;31595;51.418;7.572;2023-04-28T10:25:24;99716.72;;;20.36;50.07
45888;BME280;31595;51.418;7.572;2023-04-28T10:27:52;99710.19;;;20.14;50.63
45888;BME280;31595;51.418;7.572;2023-04-28T10:30:21;99707.34;;;20.11;50.86
45888;BME280;31595;51.418;7.572;2023-04-28T10:33:24;99703.91;;;21.18;49.15
45888;BME280;31595;51.418;7.572;2023-04-28T10:35:54;99704.31;;;22.51;47.89
45888;BME280;31595;51.418;7.572;2023-04-28T10:38:21;99712.44;;;22.49;46.68
45888;BME280;31595;51.418;7.572;2023-04-28T10:40:50;99705.16;;;22.44;47.58
45888;BME280;31595;51.418;7.572;2023-04-28T10:43:37;99701.03;;;21.57;49.02
45888;BME280;31595;51.418;7.572;2023-04-28T10:46:08;99694.06;;;21.87;47.94
45888;BME280;31595;51.418;7.572;2023-04-28T10:48:56;99691.47;;;22.92;46.74
45888;BME280;31595;51.418;7.572;2023-04-28T10:51:27;99688.22;;;23.38;44.88
45888;BME280;31595;51.418;7.572;2023-04-28T10:54:16;99678.22;;;24.60;41.36
45888;BME280;31595;51.418;7.572;2023-04-28T10:57:18;99682.38;;;24.56;42.23
45888;BME280;31595;51.418;7.572;2023-04-28T10:59:47;99673.97;;;24.14;42.65
45888;BME280;31595;51.418;7.572;2023-04-28T11:02:48;99682.78;;;23.55;44.03
45888;BME280;31595;51.418;7.572;2023-04-28T11:05:17;99681.28;;;23.43;44.70
45888;BME280;31595;51.418;7.572;2023-04-28T11:11:17;99681.75;;;22.22;46.79
45888;BME280;31595;51.418;7.572;2023-04-28T11:13:45;99677.00;;;22.01;47.48
45888;BME280;31595;51.418;7.572;2023-04-28T11:16:21;99680.81;;;21.55;48.50
45888;BME280;31595;51.418;7.572;2023-04-28T11:18:57;99676.72;;;21.60;48.51
45888;BME280;31595;51.418;7.572;2023-04-28T11:21:30;99684.41;;;21.70;48.87
45888;BME280;31595;51.418;7.572;2023-04-28T11:23:58;99677.59;;;21.32;50.00
45888;BME280;31595;51.418;7.572;2023-04-28T11:26:27;99698.25;;;21.11;51.05
45888;BME280;31595;51.418;7.572;2023-04-28T11:28:55;99685.69;;;20.72;52.87
45888;BME280;31595;51.418;7.572;2023-04-28T11:31:24;99688.44;;;20.40;53.39
45888;BME280;31595;51.418;7.572;2023-04-28T11:33:56;99686.75;;;20.10;54.58
45888;BME280;31595;51.418;7.572;2023-04-28T11:36:30;99689.91;;;19.98;54.32
45888;BME280;31595;51.418;7.572;2023-04-28T11:38:58;99703.94;;;19.73;54.87
45888;BME280;31595;51.418;7.572;2023-04-28T11:41:26;99706.03;;;19.24;55.77
45888;BME280;31595;51.418;7.572;2023-04-28T11:43:53;99700.22;;;19.02;56.58
45888;BME280;31595;51.418;7.572;2023-04-28T11:46:22;99706.53;;;18.89;57.13
45888;BME280;31595;51.418;7.572;2023-04-28T11:48:59;99703.25;;;18.42;61.53
45888;BME280;31595;51.418;7.572;2023-04-28T11:51:33;99705.38;;;18.18;62.36
45888;BME280;31595;51.418;7.572;2023-04-28T11:54:01;99699.25;;;18.09;62.90
45888;BME280;31595;51.418;7.572;2023-04-28T11:56:29;99708.19;;;18.18;63.77
45888;BME280;31595;51.418;7.572;2023-04-28T11:59:01;99700.53;;;18.15;65.24
45888;BME280;31595;51.418;7.572;2023-04-28T12:01:29;99699.63;;;18.08;63.67
45888;BME280;31595;51.418;7.572;2023-04-28T12:03:57;99703.94;;;18.32;63.61
45888;BME280;31595;51.418;7.572;2023-04-28T12:06:24;99700.59;;;18.60;62.87
45888;BME280;31595;51.418;7.572;2023-04-28T12:08:53;99708.06;;;18.79;61.73
45888;BME280;31595;51.418;7.572;2023-04-28T12:11:20;99700.28;;;18.69;61.96
45888;BME280;31595;51.418;7.572;2023-04-28T12:14:04;99695.13;;;18.78;61.52
45888;BME280;31595;51.418;7.572;2023-04-28T12:16:39;99693.16;;;18.78;61.72
45888;BME280;31595;51.418;7.572;2023-04-28T12:19:09;99698.56;;;18.60;61.77
45888;BME280;31595;51.418;7.572;2023-04-28T12:21:38;99700.16;;;18.54;61.73
45888;BME280;31595;51.418;7.572;2023-04-28T12:24:18;99702.78;;;18.36;62.13
45888;BME280;31595;51.418;7.572;2023-04-28T12:26:46;99702.31;;;18.31;62.10
45888;BME280;31595;51.418;7.572;2023-04-28T12:29:37;99703.34;;;18.15;63.43
45888;BME280;31595;51.418;7.572;2023-04-28T12:32:06;99701.03;;;18.24;63.14
45888;BME280;31595;51.418;7.572;2023-04-28T12:34:34;99704.78;;;18.36;63.08
45888;BME280;31595;51.418;7.572;2023-04-28T12:37:02;99706.03;;;18.38;62.20
45888;BME280;31595;51.418;7.572;2023-04-28T12:39:32;99715.22;;;18.69;62.30
45888;BME280;31595;51.418;7.572;2023-04-28T12:42:00;99704.91;;;18.88;61.16
45888;BME280;31595;51.418;7.572;2023-04-28T12:44:31;99701.38;;;18.98;60.89
45888;BME280;31595;51.418;7.572;2023-04-28T12:47:01;99711.59;;;19.13;60.36
45888;BME280;31595;51.418;7.572;2023-04-28T12:49:29;99703.16;;;19.20;60.60
45888;BME280;31595;51.418;7.572;2023-04-28T12:51:56;99716.16;;;19.32;60.51
45888;BME280;31595;51.418;7.572;2023-04-28T12:54:23;99713.84;;;19.48;59.73
45888;BME280;31595;51.418;7.572;2023-04-28T12:56:53;99715.25;;;19.76;59.43
45888;BME280;31595;51.418;7.572;2023-04-28T12:59:20;99699.66;;;20.07;59.52
45888;BME280;31595;51.418;7.572;2023-04-28T13:01:47;99701.75;;;20.28;58.08
45888;BME280;31595;51.418;7.572;2023-04-28T13:04:15;99697.72;;;20.37;57.64
45888;BME280;31595;51.418;7.572;2023-04-28T13:06:43;99704.28;;;20.70;57.53
45888;BME280;31595;51.418;7.572;2023-04-28T13:09:10;99698.59;;;20.66;56.29
45888;BME280;31595;51.418;7.572;2023-04-28T13:11:38;99700.66;;;20.87;56.28
45888;BME280;31595;51.418;7.572;2023-04-28T13:14:07;99698.59;;;21.41;54.31